Airfield :
LOGIN :

Register | Disclaimer

   EN    FR    IT 

 










Legend :    VFR   Marginal VFR   IFR   Intensive IFR   Very Intensive IFR
Visi :
Ceiling :
>= 8 km
>= 3000ft
5 to 8 km
1000 to 3000 ft
1500m to 5 km
500 to 1000 ft
800 to 1500m
200 to 500 ft
< 800m
< 200 ft
Symbols :   Thunderstorms  Fog  Heavy snow  Heavy precipitations  Wind > 20 kt
SIGMETs :     Misc.  Thunderstorms  Icing  Turbulence  Mountain Waves  Volcanic Ashes







- Airport Elevation : 219 ft
- IATA code : DNR
- Download approach charts


LFRD - Dinard

CURRENT METAR :
  • 220930Z AUTO 25008KT 9999 FEW027 SCT054 05/04 Q1008 TEMPO 27015G25KT 4000 SHRA BKN020TCU

EXPIRED METARs :
  • 220900Z AUTO 25006KT 9999 FEW022 SCT036 BKN140 04/03 Q1008 TEMPO 27015G25KT 4000 SHRA BKN020TCU
  • 220830Z AUTO 24009KT 9999 BKN035 BKN042 BKN056 04/03 Q1008 TEMPO 27015G25KT 4000 SHRA BKN020TCU
  • 220800Z AUTO 24007KT 9999 BKN037 BKN045 03/03 Q1008 TEMPO 27015G25KT 4000 SHRA BKN020TCU
  • 220730Z AUTO 25005KT 9999 BKN036 BKN042 BKN054 04/03 Q1008 TEMPO 27015G25KT 4000 SHRA BKN020TCU
  • 220700Z AUTO 27003KT 240V320 9999 -RA BKN035 BKN042 BKN048 04/04 Q1008 TEMPO 27015G25KT 4000 SHRA BKN020TCU

TAF TAF LFRD
Valid from the 22 at 06:00 until the 23 at 06:00 UTC


220500Z 2206/2306 31010KT 9999 SCT030
PROB40
TEMPO 2208/2215 27015G25KT 4000 SHRA BKN020TCU
BECMG 2213/2215 25010KT
TEMPO 2215/2219 25015G30KT 3000 SHRAGS BKN012CB
TEMPO 2219/2306 4000 SHRA BKN015TCU
BECMG 2301/2303 33015G30KT
ATIS : +33 2 99 16 81 50
No reported NOTAMs for that airfield.



MET'MAP, your aeronautical weather chart ! - Copyright ORBIFLY December 2007 - Disclaimer

ORBIFLY MET'MAP TEAM :

Programming & Development : Alexandra Zaïnal
Concept & Development : Baudouin d'Aumeries
Co-Development & Prog : Marc-Olivier Méhu
Technical & hardware support : Manuel Goepfert

Contact : metmap@orbifly.com




SOURCES & CREDITS :

   NOAA